sensor_id;sensor_type;location;lat;lon;timestamp;P1;durP1;ratioP1;P2;durP2;ratioP2
21120;SDS011;12519;43.318;21.898;2023-05-06T00:01:17;8.0;;;7.0;;
21120;SDS011;12519;43.318;21.898;2023-05-06T00:05:55;8.0;;;7.0;;
21120;SDS011;12519;43.318;21.898;2023-05-06T00:10:32;8.0;;;7.0;;
21120;SDS011;12519;43.318;21.898;2023-05-06T00:15:10;8.0;;;7.0;;
21120;SDS011;12519;43.318;21.898;2023-05-06T00:19:47;9.0;;;7.0;;
21120;SDS011;12519;43.318;21.898;2023-05-06T00:24:24;9.0;;;7.0;;
21120;SDS011;12519;43.318;21.898;2023-05-06T00:29:00;8.0;;;6.0;;
21120;SDS011;12519;43.318;21.898;2023-05-06T00:33:37;8.0;;;6.0;;
21120;SDS011;12519;43.318;21.898;2023-05-06T00:38:14;6.0;;;5.0;;
21120;SDS011;12519;43.318;21.898;2023-05-06T00:42:51;6.0;;;5.0;;
21120;SDS011;12519;43.318;21.898;2023-05-06T00:47:27;6.0;;;5.0;;
21120;SDS011;12519;43.318;21.898;2023-05-06T00:52:05;6.0;;;6.0;;
21120;SDS011;12519;43.318;21.898;2023-05-06T00:56:43;6.0;;;6.0;;
21120;SDS011;12519;43.318;21.898;2023-05-06T01:01:21;7.0;;;7.0;;
21120;SDS011;12519;43.318;21.898;2023-05-06T01:06:22;7.0;;;7.0;;
21120;SDS011;12519;43.318;21.898;2023-05-06T01:11:40;6.0;;;6.0;;
21120;SDS011;12519;43.318;21.898;2023-05-06T01:16:42;6.0;;;6.0;;
21120;SDS011;12519;43.318;21.898;2023-05-06T01:21:45;6.0;;;6.0;;
21120;SDS011;12519;43.318;21.898;2023-05-06T01:26:39;6.0;;;6.0;;
21120;SDS011;12519;43.318;21.898;2023-05-06T01:31:28;7.0;;;7.0;;
21120;SDS011;12519;43.318;21.898;2023-05-06T01:36:44;7.0;;;7.0;;
21120;SDS011;12519;43.318;21.898;2023-05-06T01:41:57;8.0;;;8.0;;
21120;SDS011;12519;43.318;21.898;2023-05-06T01:46:44;8.0;;;8.0;;
21120;SDS011;12519;43.318;21.898;2023-05-06T01:51:24;8.0;;;7.0;;
21120;SDS011;12519;43.318;21.898;2023-05-06T01:56:03;8.0;;;7.0;;
21120;SDS011;12519;43.318;21.898;2023-05-06T02:00:42;7.0;;;6.0;;
21120;SDS011;12519;43.318;21.898;2023-05-06T02:05:19;7.0;;;6.0;;
21120;SDS011;12519;43.318;21.898;2023-05-06T02:09:55;7.0;;;6.0;;
21120;SDS011;12519;43.318;21.898;2023-05-06T02:14:32;7.0;;;6.0;;
21120;SDS011;12519;43.318;21.898;2023-05-06T02:19:08;7.0;;;6.0;;
21120;SDS011;12519;43.318;21.898;2023-05-06T02:23:45;7.0;;;6.0;;
21120;SDS011;12519;43.318;21.898;2023-05-06T02:28:21;8.0;;;7.0;;
21120;SDS011;12519;43.318;21.898;2023-05-06T02:32:57;8.0;;;7.0;;
21120;SDS011;12519;43.318;21.898;2023-05-06T02:37:33;8.0;;;7.0;;
21120;SDS011;12519;43.318;21.898;2023-05-06T02:42:14;9.0;;;8.0;;
21120;SDS011;12519;43.318;21.898;2023-05-06T02:46:51;9.0;;;8.0;;
21120;SDS011;12519;43.318;21.898;2023-05-06T02:51:27;11.0;;;10.0;;
21120;SDS011;12519;43.318;21.898;2023-05-06T02:56:05;11.0;;;10.0;;
21120;SDS011;12519;43.318;21.898;2023-05-06T03:00:42;13.0;;;12.0;;
21120;SDS011;12519;43.318;21.898;2023-05-06T03:05:19;13.0;;;12.0;;
21120;SDS011;12519;43.318;21.898;2023-05-06T03:09:55;12.0;;;11.0;;
21120;SDS011;12519;43.318;21.898;2023-05-06T03:14:32;12.0;;;11.0;;
21120;SDS011;12519;43.318;21.898;2023-05-06T03:19:09;11.0;;;10.0;;
21120;SDS011;12519;43.318;21.898;2023-05-06T03:23:45;11.0;;;10.0;;
21120;SDS011;12519;43.318;21.898;2023-05-06T03:28:22;8.0;;;8.0;;
21120;SDS011;12519;43.318;21.898;2023-05-06T03:33:00;8.0;;;8.0;;
21120;SDS011;12519;43.318;21.898;2023-05-06T03:37:37;8.0;;;8.0;;
21120;SDS011;12519;43.318;21.898;2023-05-06T03:42:14;6.0;;;6.0;;
21120;SDS011;12519;43.318;21.898;2023-05-06T03:46:50;6.0;;;6.0;;
21120;SDS011;12519;43.318;21.898;2023-05-06T03:51:27;10.0;;;9.0;;
21120;SDS011;12519;43.318;21.898;2023-05-06T03:56:06;10.0;;;9.0;;
21120;SDS011;12519;43.318;21.898;2023-05-06T04:00:43;14.0;;;12.0;;
21120;SDS011;12519;43.318;21.898;2023-05-06T04:05:20;14.0;;;12.0;;
21120;SDS011;12519;43.318;21.898;2023-05-06T04:09:56;13.0;;;11.0;;
21120;SDS011;12519;43.318;21.898;2023-05-06T04:14:33;13.0;;;11.0;;
21120;SDS011;12519;43.318;21.898;2023-05-06T04:19:10;12.0;;;10.0;;
21120;SDS011;12519;43.318;21.898;2023-05-06T04:23:46;12.0;;;10.0;;
21120;SDS011;12519;43.318;21.898;2023-05-06T04:28:23;12.0;;;10.0;;
21120;SDS011;12519;43.318;21.898;2023-05-06T04:33:00;10.0;;;9.0;;
21120;SDS011;12519;43.318;21.898;2023-05-06T04:37:37;10.0;;;9.0;;
21120;SDS011;12519;43.318;21.898;2023-05-06T04:42:15;9.0;;;8.0;;
21120;SDS011;12519;43.318;21.898;2023-05-06T04:46:51;9.0;;;8.0;;
21120;SDS011;12519;43.318;21.898;2023-05-06T04:51:28;10.0;;;8.0;;
21120;SDS011;12519;43.318;21.898;2023-05-06T04:56:06;10.0;;;8.0;;
21120;SDS011;12519;43.318;21.898;2023-05-06T05:00:42;10.0;;;9.0;;
21120;SDS011;12519;43.318;21.898;2023-05-06T05:05:19;10.0;;;9.0;;
21120;SDS011;12519;43.318;21.898;2023-05-06T05:09:55;10.0;;;8.0;;
21120;SDS011;12519;43.318;21.898;2023-05-06T05:14:31;10.0;;;8.0;;
21120;SDS011;12519;43.318;21.898;2023-05-06T05:19:07;9.0;;;8.0;;
21120;SDS011;12519;43.318;21.898;2023-05-06T05:23:44;9.0;;;8.0;;
21120;SDS011;12519;43.318;21.898;2023-05-06T05:28:20;9.0;;;8.0;;
21120;SDS011;12519;43.318;21.898;2023-05-06T05:32:57;9.0;;;8.0;;
21120;SDS011;12519;43.318;21.898;2023-05-06T05:37:33;9.0;;;8.0;;
21120;SDS011;12519;43.318;21.898;2023-05-06T05:42:10;9.0;;;8.0;;
21120;SDS011;12519;43.318;21.898;2023-05-06T05:46:48;9.0;;;8.0;;
21120;SDS011;12519;43.318;21.898;2023-05-06T05:51:25;9.0;;;8.0;;
21120;SDS011;12519;43.318;21.898;2023-05-06T05:56:02;9.0;;;8.0;;
21120;SDS011;12519;43.318;21.898;2023-05-06T06:00:40;9.0;;;7.0;;
21120;SDS011;12519;43.318;21.898;2023-05-06T06:05:17;9.0;;;7.0;;
21120;SDS011;12519;43.318;21.898;2023-05-06T06:09:53;8.0;;;6.0;;
21120;SDS011;12519;43.318;21.898;2023-05-06T06:14:30;8.0;;;6.0;;
21120;SDS011;12519;43.318;21.898;2023-05-06T06:19:06;7.0;;;6.0;;
21120;SDS011;12519;43.318;21.898;2023-05-06T06:23:43;7.0;;;6.0;;
21120;SDS011;12519;43.318;21.898;2023-05-06T06:28:20;7.0;;;6.0;;
21120;SDS011;12519;43.318;21.898;2023-05-06T06:32:58;10.0;;;8.0;;
21120;SDS011;12519;43.318;21.898;2023-05-06T06:37:35;10.0;;;8.0;;
21120;SDS011;12519;43.318;21.898;2023-05-06T06:42:12;12.0;;;10.0;;
21120;SDS011;12519;43.318;21.898;2023-05-06T06:46:49;12.0;;;10.0;;
21120;SDS011;12519;43.318;21.898;2023-05-06T06:51:26;16.0;;;13.0;;
21120;SDS011;12519;43.318;21.898;2023-05-06T06:56:03;16.0;;;13.0;;
21120;SDS011;12519;43.318;21.898;2023-05-06T07:00:46;20.0;;;16.0;;
21120;SDS011;12519;43.318;21.898;2023-05-06T07:05:23;20.0;;;16.0;;
21120;SDS011;12519;43.318;21.898;2023-05-06T07:10:00;20.0;;;17.0;;
21120;SDS011;12519;43.318;21.898;2023-05-06T07:14:37;20.0;;;17.0;;
21120;SDS011;12519;43.318;21.898;2023-05-06T07:19:13;20.0;;;18.0;;
21120;SDS011;12519;43.318;21.898;2023-05-06T07:23:50;20.0;;;18.0;;
21120;SDS011;12519;43.318;21.898;2023-05-06T07:28:27;20.0;;;18.0;;
21120;SDS011;12519;43.318;21.898;2023-05-06T07:33:03;18.0;;;16.0;;
21120;SDS011;12519;43.318;21.898;2023-05-06T07:37:40;18.0;;;16.0;;
21120;SDS011;12519;43.318;21.898;2023-05-06T07:42:17;17.0;;;15.0;;
21120;SDS011;12519;43.318;21.898;2023-05-06T07:46:53;17.0;;;15.0;;
21120;SDS011;12519;43.318;21.898;2023-05-06T07:51:29;15.0;;;14.0;;
21120;SDS011;12519;43.318;21.898;2023-05-06T07:56:06;15.0;;;14.0;;
21120;SDS011;12519;43.318;21.898;2023-05-06T08:00:42;13.0;;;13.0;;
21120;SDS011;12519;43.318;21.898;2023-05-06T08:05:19;13.0;;;13.0;;
21120;SDS011;12519;43.318;21.898;2023-05-06T08:09:55;10.0;;;10.0;;
21120;SDS011;12519;43.318;21.898;2023-05-06T08:14:32;10.0;;;10.0;;
21120;SDS011;12519;43.318;21.898;2023-05-06T08:19:09;8.0;;;7.0;;
21120;SDS011;12519;43.318;21.898;2023-05-06T08:23:46;8.0;;;7.0;;
21120;SDS011;12519;43.318;21.898;2023-05-06T08:28:22;8.0;;;7.0;;
21120;SDS011;12519;43.318;21.898;2023-05-06T08:32:59;6.0;;;6.0;;
21120;SDS011;12519;43.318;21.898;2023-05-06T08:37:37;6.0;;;6.0;;
21120;SDS011;12519;43.318;21.898;2023-05-06T08:42:15;5.0;;;5.0;;
21120;SDS011;12519;43.318;21.898;2023-05-06T08:46:53;5.0;;;5.0;;
21120;SDS011;12519;43.318;21.898;2023-05-06T08:51:33;5.0;;;4.0;;
21120;SDS011;12519;43.318;21.898;2023-05-06T08:56:15;5.0;;;4.0;;
21120;SDS011;12519;43.318;21.898;2023-05-06T09:00:55;5.0;;;4.0;;
21120;SDS011;12519;43.318;21.898;2023-05-06T09:05:34;5.0;;;4.0;;
21120;SDS011;12519;43.318;21.898;2023-05-06T09:10:13;6.0;;;4.0;;
21120;SDS011;12519;43.318;21.898;2023-05-06T09:14:52;6.0;;;4.0;;
21120;SDS011;12519;43.318;21.898;2023-05-06T09:19:28;6.0;;;5.0;;
21120;SDS011;12519;43.318;21.898;2023-05-06T09:24:09;6.0;;;5.0;;
21120;SDS011;12519;43.318;21.898;2023-05-06T09:28:51;6.0;;;5.0;;
21120;SDS011;12519;43.318;21.898;2023-05-06T09:33:28;7.0;;;4.0;;
21120;SDS011;12519;43.318;21.898;2023-05-06T09:38:06;7.0;;;4.0;;
21120;SDS011;12519;43.318;21.898;2023-05-06T09:42:46;8.0;;;4.0;;
21120;SDS011;12519;43.318;21.898;2023-05-06T09:47:28;8.0;;;4.0;;
21120;SDS011;12519;43.318;21.898;2023-05-06T09:52:12;7.0;;;4.0;;
21120;SDS011;12519;43.318;21.898;2023-05-06T09:56:50;7.0;;;4.0;;
21120;SDS011;12519;43.318;21.898;2023-05-06T10:01:35;6.0;;;5.0;;
21120;SDS011;12519;43.318;21.898;2023-05-06T10:06:15;6.0;;;5.0;;
21120;SDS011;12519;43.318;21.898;2023-05-06T10:11:00;6.0;;;5.0;;
21120;SDS011;12519;43.318;21.898;2023-05-06T10:15:44;6.0;;;5.0;;
21120;SDS011;12519;43.318;21.898;2023-05-06T10:20:27;5.0;;;5.0;;
21120;SDS011;12519;43.318;21.898;2023-05-06T10:25:22;5.0;;;5.0;;
21120;SDS011;12519;43.318;21.898;2023-05-06T10:30:15;6.0;;;5.0;;
21120;SDS011;12519;43.318;21.898;2023-05-06T10:35:04;6.0;;;5.0;;
21120;SDS011;12519;43.318;21.898;2023-05-06T10:39:55;6.0;;;5.0;;
21120;SDS011;12519;43.318;21.898;2023-05-06T10:44:57;6.0;;;5.0;;
21120;SDS011;12519;43.318;21.898;2023-05-06T10:49:38;6.0;;;5.0;;
21120;SDS011;12519;43.318;21.898;2023-05-06T10:54:22;6.0;;;5.0;;
21120;SDS011;12519;43.318;21.898;2023-05-06T10:59:04;6.0;;;5.0;;
21120;SDS011;12519;43.318;21.898;2023-05-06T11:03:49;5.0;;;5.0;;
21120;SDS011;12519;43.318;21.898;2023-05-06T11:08:27;5.0;;;5.0;;
21120;SDS011;12519;43.318;21.898;2023-05-06T11:13:24;6.0;;;6.0;;
21120;SDS011;12519;43.318;21.898;2023-05-06T11:18:43;6.0;;;6.0;;
21120;SDS011;12519;43.318;21.898;2023-05-06T11:23:20;6.0;;;6.0;;
21120;SDS011;12519;43.318;21.898;2023-05-06T11:28:44;6.0;;;6.0;;
21120;SDS011;12519;43.318;21.898;2023-05-06T11:33:34;6.0;;;6.0;;
21120;SDS011;12519;43.318;21.898;2023-05-06T11:38:19;6.0;;;6.0;;
21120;SDS011;12519;43.318;21.898;2023-05-06T11:43:10;7.0;;;5.0;;
21120;SDS011;12519;43.318;21.898;2023-05-06T11:47:53;7.0;;;5.0;;
21120;SDS011;12519;43.318;21.898;2023-05-06T11:52:30;6.0;;;5.0;;
21120;SDS011;12519;43.318;21.898;2023-05-06T11:57:08;6.0;;;5.0;;
21120;SDS011;12519;43.318;21.898;2023-05-06T12:01:45;5.0;;;5.0;;
21120;SDS011;12519;43.318;21.898;2023-05-06T12:06:33;5.0;;;5.0;;
21120;SDS011;12519;43.318;21.898;2023-05-06T12:11:13;6.0;;;5.0;;
21120;SDS011;12519;43.318;21.898;2023-05-06T12:15:54;6.0;;;5.0;;
21120;SDS011;12519;43.318;21.898;2023-05-06T12:20:35;6.0;;;5.0;;
21120;SDS011;12519;43.318;21.898;2023-05-06T12:25:15;6.0;;;5.0;;
21120;SDS011;12519;43.318;21.898;2023-05-06T12:29:54;6.0;;;5.0;;
21120;SDS011;12519;43.318;21.898;2023-05-06T12:34:36;6.0;;;5.0;;
21120;SDS011;12519;43.318;21.898;2023-05-06T12:39:16;6.0;;;5.0;;
21120;SDS011;12519;43.318;21.898;2023-05-06T12:43:53;5.0;;;5.0;;
21120;SDS011;12519;43.318;21.898;2023-05-06T12:48:29;5.0;;;5.0;;
21120;SDS011;12519;43.318;21.898;2023-05-06T12:53:11;4.0;;;4.0;;
21120;SDS011;12519;43.318;21.898;2023-05-06T12:57:48;4.0;;;4.0;;
21120;SDS011;12519;43.318;21.898;2023-05-06T13:02:24;4.0;;;4.0;;
21120;SDS011;12519;43.318;21.898;2023-05-06T13:07:00;4.0;;;4.0;;
21120;SDS011;12519;43.318;21.898;2023-05-06T13:11:36;4.0;;;4.0;;
21120;SDS011;12519;43.318;21.898;2023-05-06T13:16:13;4.0;;;4.0;;
21120;SDS011;12519;43.318;21.898;2023-05-06T13:20:50;5.0;;;4.0;;
21120;SDS011;12519;43.318;21.898;2023-05-06T13:25:27;5.0;;;4.0;;
21120;SDS011;12519;43.318;21.898;2023-05-06T13:30:06;5.0;;;4.0;;
21120;SDS011;12519;43.318;21.898;2023-05-06T13:34:44;5.0;;;4.0;;
21120;SDS011;12519;43.318;21.898;2023-05-06T13:39:22;5.0;;;4.0;;
21120;SDS011;12519;43.318;21.898;2023-05-06T13:44:00;5.0;;;5.0;;
21120;SDS011;12519;43.318;21.898;2023-05-06T13:48:36;5.0;;;5.0;;
21120;SDS011;12519;43.318;21.898;2023-05-06T13:53:14;5.0;;;5.0;;
21120;SDS011;12519;43.318;21.898;2023-05-06T13:57:51;5.0;;;5.0;;
21120;SDS011;12519;43.318;21.898;2023-05-06T14:02:27;5.0;;;5.0;;
21120;SDS011;12519;43.318;21.898;2023-05-06T14:07:04;5.0;;;5.0;;
21120;SDS011;12519;43.318;21.898;2023-05-06T14:11:40;5.0;;;5.0;;
21120;SDS011;12519;43.318;21.898;2023-05-06T14:16:17;5.0;;;5.0;;
21120;SDS011;12519;43.318;21.898;2023-05-06T14:20:54;5.0;;;5.0;;
21120;SDS011;12519;43.318;21.898;2023-05-06T14:25:30;5.0;;;5.0;;
21120;SDS011;12519;43.318;21.898;2023-05-06T14:30:08;4.0;;;4.0;;
21120;SDS011;12519;43.318;21.898;2023-05-06T14:34:47;4.0;;;4.0;;
21120;SDS011;12519;43.318;21.898;2023-05-06T14:39:24;4.0;;;4.0;;
21120;SDS011;12519;43.318;21.898;2023-05-06T14:44:00;4.0;;;4.0;;
21120;SDS011;12519;43.318;21.898;2023-05-06T14:48:37;4.0;;;4.0;;
21120;SDS011;12519;43.318;21.898;2023-05-06T14:53:13;4.0;;;4.0;;
21120;SDS011;12519;43.318;21.898;2023-05-06T14:57:50;4.0;;;4.0;;
21120;SDS011;12519;43.318;21.898;2023-05-06T15:02:27;4.0;;;4.0;;
21120;SDS011;12519;43.318;21.898;2023-05-06T15:07:04;4.0;;;4.0;;
21120;SDS011;12519;43.318;21.898;2023-05-06T15:11:40;5.0;;;5.0;;
21120;SDS011;12519;43.318;21.898;2023-05-06T15:16:17;5.0;;;5.0;;
21120;SDS011;12519;43.318;21.898;2023-05-06T15:20:54;6.0;;;6.0;;
21120;SDS011;12519;43.318;21.898;2023-05-06T15:25:31;6.0;;;6.0;;
21120;SDS011;12519;43.318;21.898;2023-05-06T15:30:09;6.0;;;5.0;;
21120;SDS011;12519;43.318;21.898;2023-05-06T15:34:47;6.0;;;5.0;;
21120;SDS011;12519;43.318;21.898;2023-05-06T15:39:23;6.0;;;5.0;;
21120;SDS011;12519;43.318;21.898;2023-05-06T15:44:02;5.0;;;4.0;;
21120;SDS011;12519;43.318;21.898;2023-05-06T15:48:39;5.0;;;4.0;;
21120;SDS011;12519;43.318;21.898;2023-05-06T15:53:18;6.0;;;4.0;;
21120;SDS011;12519;43.318;21.898;2023-05-06T15:57:54;6.0;;;4.0;;
21120;SDS011;12519;43.318;21.898;2023-05-06T16:02:31;8.0;;;5.0;;
21120;SDS011;12519;43.318;21.898;2023-05-06T16:07:08;8.0;;;5.0;;
21120;SDS011;12519;43.318;21.898;2023-05-06T16:11:44;8.0;;;6.0;;
21120;SDS011;12519;43.318;21.898;2023-05-06T16:16:21;8.0;;;6.0;;
21120;SDS011;12519;43.318;21.898;2023-05-06T16:20:58;9.0;;;6.0;;
21120;SDS011;12519;43.318;21.898;2023-05-06T16:25:35;9.0;;;6.0;;
21120;SDS011;12519;43.318;21.898;2023-05-06T16:30:13;7.0;;;5.0;;
21120;SDS011;12519;43.318;21.898;2023-05-06T16:34:51;7.0;;;5.0;;
21120;SDS011;12519;43.318;21.898;2023-05-06T16:39:27;7.0;;;5.0;;
21120;SDS011;12519;43.318;21.898;2023-05-06T16:44:04;5.0;;;4.0;;
21120;SDS011;12519;43.318;21.898;2023-05-06T16:48:40;5.0;;;4.0;;
21120;SDS011;12519;43.318;21.898;2023-05-06T16:53:17;5.0;;;4.0;;
21120;SDS011;12519;43.318;21.898;2023-05-06T16:57:53;5.0;;;4.0;;
21120;SDS011;12519;43.318;21.898;2023-05-06T17:02:30;5.0;;;5.0;;
21120;SDS011;12519;43.318;21.898;2023-05-06T17:07:06;5.0;;;5.0;;
21120;SDS011;12519;43.318;21.898;2023-05-06T17:11:42;6.0;;;5.0;;
21120;SDS011;12519;43.318;21.898;2023-05-06T17:16:19;6.0;;;5.0;;
21120;SDS011;12519;43.318;21.898;2023-05-06T17:20:56;6.0;;;5.0;;
21120;SDS011;12519;43.318;21.898;2023-05-06T17:25:33;6.0;;;5.0;;
21120;SDS011;12519;43.318;21.898;2023-05-06T17:30:10;7.0;;;6.0;;
21120;SDS011;12519;43.318;21.898;2023-05-06T17:34:48;7.0;;;6.0;;
21120;SDS011;12519;43.318;21.898;2023-05-06T17:39:25;7.0;;;6.0;;
21120;SDS011;12519;43.318;21.898;2023-05-06T17:44:02;8.0;;;7.0;;
21120;SDS011;12519;43.318;21.898;2023-05-06T17:48:40;8.0;;;7.0;;
21120;SDS011;12519;43.318;21.898;2023-05-06T17:53:16;6.0;;;6.0;;
21120;SDS011;12519;43.318;21.898;2023-05-06T17:57:53;6.0;;;6.0;;
21120;SDS011;12519;43.318;21.898;2023-05-06T18:02:30;5.0;;;5.0;;
21120;SDS011;12519;43.318;21.898;2023-05-06T18:07:06;5.0;;;5.0;;
21120;SDS011;12519;43.318;21.898;2023-05-06T18:11:43;6.0;;;6.0;;
21120;SDS011;12519;43.318;21.898;2023-05-06T18:16:20;6.0;;;6.0;;
21120;SDS011;12519;43.318;21.898;2023-05-06T18:20:56;7.0;;;7.0;;
21120;SDS011;12519;43.318;21.898;2023-05-06T18:25:32;7.0;;;7.0;;
21120;SDS011;12519;43.318;21.898;2023-05-06T18:30:10;7.0;;;7.0;;
21120;SDS011;12519;43.318;21.898;2023-05-06T18:34:47;7.0;;;6.0;;
21120;SDS011;12519;43.318;21.898;2023-05-06T18:39:24;7.0;;;6.0;;
21120;SDS011;12519;43.318;21.898;2023-05-06T18:44:01;7.0;;;6.0;;
21120;SDS011;12519;43.318;21.898;2023-05-06T18:48:39;7.0;;;6.0;;
21120;SDS011;12519;43.318;21.898;2023-05-06T18:53:15;8.0;;;7.0;;
21120;SDS011;12519;43.318;21.898;2023-05-06T18:57:52;8.0;;;7.0;;
21120;SDS011;12519;43.318;21.898;2023-05-06T19:02:28;10.0;;;8.0;;
21120;SDS011;12519;43.318;21.898;2023-05-06T19:07:05;10.0;;;8.0;;
21120;SDS011;12519;43.318;21.898;2023-05-06T19:11:42;9.0;;;6.0;;
21120;SDS011;12519;43.318;21.898;2023-05-06T19:16:19;9.0;;;6.0;;
21120;SDS011;12519;43.318;21.898;2023-05-06T19:20:56;8.0;;;5.0;;
21120;SDS011;12519;43.318;21.898;2023-05-06T19:25:37;8.0;;;5.0;;
21120;SDS011;12519;43.318;21.898;2023-05-06T19:30:14;8.0;;;5.0;;
21120;SDS011;12519;43.318;21.898;2023-05-06T19:34:50;8.0;;;6.0;;
21120;SDS011;12519;43.318;21.898;2023-05-06T19:39:27;8.0;;;6.0;;
21120;SDS011;12519;43.318;21.898;2023-05-06T19:44:05;7.0;;;6.0;;
21120;SDS011;12519;43.318;21.898;2023-05-06T19:48:41;7.0;;;6.0;;
21120;SDS011;12519;43.318;21.898;2023-05-06T19:53:17;7.0;;;6.0;;
21120;SDS011;12519;43.318;21.898;2023-05-06T19:57:55;7.0;;;6.0;;
21120;SDS011;12519;43.318;21.898;2023-05-06T20:02:32;7.0;;;7.0;;
21120;SDS011;12519;43.318;21.898;2023-05-06T20:07:10;7.0;;;7.0;;
21120;SDS011;12519;43.318;21.898;2023-05-06T20:11:48;8.0;;;7.0;;
21120;SDS011;12519;43.318;21.898;2023-05-06T20:16:25;8.0;;;7.0;;
21120;SDS011;12519;43.318;21.898;2023-05-06T20:21:02;8.0;;;7.0;;
21120;SDS011;12519;43.318;21.898;2023-05-06T20:25:39;8.0;;;7.0;;
21120;SDS011;12519;43.318;21.898;2023-05-06T20:30:15;8.0;;;7.0;;
21120;SDS011;12519;43.318;21.898;2023-05-06T20:34:52;7.0;;;6.0;;
21120;SDS011;12519;43.318;21.898;2023-05-06T20:39:29;7.0;;;6.0;;
21120;SDS011;12519;43.318;21.898;2023-05-06T20:44:06;6.0;;;6.0;;
21120;SDS011;12519;43.318;21.898;2023-05-06T20:48:42;6.0;;;6.0;;
21120;SDS011;12519;43.318;21.898;2023-05-06T20:53:19;8.0;;;6.0;;
21120;SDS011;12519;43.318;21.898;2023-05-06T20:57:56;8.0;;;6.0;;
21120;SDS011;12519;43.318;21.898;2023-05-06T21:02:32;11.0;;;7.0;;
21120;SDS011;12519;43.318;21.898;2023-05-06T21:07:08;11.0;;;7.0;;
21120;SDS011;12519;43.318;21.898;2023-05-06T21:11:45;10.0;;;8.0;;
21120;SDS011;12519;43.318;21.898;2023-05-06T21:16:21;10.0;;;8.0;;
21120;SDS011;12519;43.318;21.898;2023-05-06T21:20:57;8.0;;;8.0;;
21120;SDS011;12519;43.318;21.898;2023-05-06T21:25:34;8.0;;;8.0;;
21120;SDS011;12519;43.318;21.898;2023-05-06T21:30:12;8.0;;;8.0;;
21120;SDS011;12519;43.318;21.898;2023-05-06T21:34:49;8.0;;;7.0;;
21120;SDS011;12519;43.318;21.898;2023-05-06T21:39:26;8.0;;;7.0;;
21120;SDS011;12519;43.318;21.898;2023-05-06T21:44:04;7.0;;;6.0;;
21120;SDS011;12519;43.318;21.898;2023-05-06T21:48:44;7.0;;;6.0;;
21120;SDS011;12519;43.318;21.898;2023-05-06T21:53:20;7.0;;;6.0;;
21120;SDS011;12519;43.318;21.898;2023-05-06T21:57:57;7.0;;;6.0;;
21120;SDS011;12519;43.318;21.898;2023-05-06T22:02:34;7.0;;;6.0;;
21120;SDS011;12519;43.318;21.898;2023-05-06T22:07:10;7.0;;;6.0;;
21120;SDS011;12519;43.318;21.898;2023-05-06T22:11:47;9.0;;;6.0;;
21120;SDS011;12519;43.318;21.898;2023-05-06T22:16:24;9.0;;;6.0;;
21120;SDS011;12519;43.318;21.898;2023-05-06T22:21:00;11.0;;;7.0;;
21120;SDS011;12519;43.318;21.898;2023-05-06T22:25:37;11.0;;;7.0;;
21120;SDS011;12519;43.318;21.898;2023-05-06T22:30:14;11.0;;;7.0;;
21120;SDS011;12519;43.318;21.898;2023-05-06T22:34:51;8.0;;;6.0;;
21120;SDS011;12519;43.318;21.898;2023-05-06T22:39:27;8.0;;;6.0;;
21120;SDS011;12519;43.318;21.898;2023-05-06T22:44:04;6.0;;;6.0;;
21120;SDS011;12519;43.318;21.898;2023-05-06T22:48:41;6.0;;;6.0;;
21120;SDS011;12519;43.318;21.898;2023-05-06T22:53:18;6.0;;;6.0;;
21120;SDS011;12519;43.318;21.898;2023-05-06T22:57:54;6.0;;;6.0;;
21120;SDS011;12519;43.318;21.898;2023-05-06T23:02:31;7.0;;;6.0;;
21120;SDS011;12519;43.318;21.898;2023-05-06T23:07:08;7.0;;;6.0;;
21120;SDS011;12519;43.318;21.898;2023-05-06T23:11:45;6.0;;;6.0;;
21120;SDS011;12519;43.318;21.898;2023-05-06T23:16:22;6.0;;;6.0;;
21120;SDS011;12519;43.318;21.898;2023-05-06T23:20:59;6.0;;;5.0;;
21120;SDS011;12519;43.318;21.898;2023-05-06T23:25:35;6.0;;;5.0;;
21120;SDS011;12519;43.318;21.898;2023-05-06T23:30:13;6.0;;;5.0;;
21120;SDS011;12519;43.318;21.898;2023-05-06T23:34:50;6.0;;;5.0;;
21120;SDS011;12519;43.318;21.898;2023-05-06T23:39:26;6.0;;;5.0;;
21120;SDS011;12519;43.318;21.898;2023-05-06T23:53:16;6.0;;;5.0;;
21120;SDS011;12519;43.318;21.898;2023-05-06T23:57:53;6.0;;;5.0;;
